sensor_id;sensor_type;location;lat;lon;timestamp;pressure;altitude;pressure_sealevel;temperature;humidity
45078;BME280;60508;42.622;25.416;2023-02-13T00:00:29;98531.03;;;2.64;56.08
45078;BME280;60508;42.622;25.416;2023-02-13T00:02:54;98533.78;;;2.72;55.40
45078;BME280;60508;42.622;25.416;2023-02-13T00:05:21;98535.69;;;2.80;55.66
45078;BME280;60508;42.622;25.416;2023-02-13T00:07:47;98530.84;;;2.93;54.50
45078;BME280;60508;42.622;25.416;2023-02-13T00:10:13;98534.31;;;2.76;54.97
45078;BME280;60508;42.622;25.416;2023-02-13T00:12:39;98531.44;;;2.69;55.65
45078;BME280;60508;42.622;25.416;2023-02-13T00:15:06;98535.13;;;2.58;56.34
45078;BME280;60508;42.622;25.416;2023-02-13T00:17:32;98537.97;;;2.47;56.65
45078;BME280;60508;42.622;25.416;2023-02-13T00:19:58;98546.19;;;2.26;57.45
45078;BME280;60508;42.622;25.416;2023-02-13T00:22:25;98545.75;;;2.30;57.48
45078;BME280;60508;42.622;25.416;2023-02-13T00:24:51;98545.22;;;2.27;57.40
45078;BME280;60508;42.622;25.416;2023-02-13T00:27:17;98542.03;;;2.23;57.84
45078;BME280;60508;42.622;25.416;2023-02-13T00:29:43;98537.19;;;2.09;58.13
45078;BME280;60508;42.622;25.416;2023-02-13T00:32:09;98541.94;;;2.15;57.99
45078;BME280;60508;42.622;25.416;2023-02-13T00:34:36;98546.28;;;2.06;57.88
45078;BME280;60508;42.622;25.416;2023-02-13T00:37:02;98544.06;;;2.29;57.17
45078;BME280;60508;42.622;25.416;2023-02-13T00:39:29;98552.34;;;2.26;57.00
45078;BME280;60508;42.622;25.416;2023-02-13T00:41:55;98529.81;;;2.03;57.26
45078;BME280;60508;42.622;25.416;2023-02-13T00:44:20;98546.56;;;2.03;58.00
45078;BME280;60508;42.622;25.416;2023-02-13T00:46:46;98543.38;;;1.99;57.88
45078;BME280;60508;42.622;25.416;2023-02-13T00:49:12;98547.00;;;1.98;58.30
45078;BME280;60508;42.622;25.416;2023-02-13T00:51:38;98551.81;;;2.13;58.43
45078;BME280;60508;42.622;25.416;2023-02-13T00:54:04;98550.84;;;2.14;58.12
45078;BME280;60508;42.622;25.416;2023-02-13T00:56:31;98540.22;;;1.86;59.57
45078;BME280;60508;42.622;25.416;2023-02-13T00:58:57;98556.63;;;1.99;59.00
45078;BME280;60508;42.622;25.416;2023-02-13T01:01:24;98557.09;;;1.85;59.99
45078;BME280;60508;42.622;25.416;2023-02-13T01:03:50;98539.56;;;2.12;58.78
45078;BME280;60508;42.622;25.416;2023-02-13T01:06:16;98545.75;;;2.30;58.84
45078;BME280;60508;42.622;25.416;2023-02-13T01:08:42;98560.53;;;2.33;58.13
45078;BME280;60508;42.622;25.416;2023-02-13T01:11:08;98556.06;;;2.06;59.67
45078;BME280;60508;42.622;25.416;2023-02-13T01:13:35;98541.59;;;2.18;59.03
45078;BME280;60508;42.622;25.416;2023-02-13T01:16:01;98549.06;;;2.05;59.15
45078;BME280;60508;42.622;25.416;2023-02-13T01:18:27;98542.53;;;1.99;59.44
45078;BME280;60508;42.622;25.416;2023-02-13T01:21:02;98535.63;;;1.78;59.22
45078;BME280;60508;42.622;25.416;2023-02-13T01:23:30;98543.22;;;1.54;60.40
45078;BME280;60508;42.622;25.416;2023-02-13T01:25:56;98547.25;;;1.58;60.92
45078;BME280;60508;42.622;25.416;2023-02-13T01:28:24;98544.25;;;1.80;59.82
45078;BME280;60508;42.622;25.416;2023-02-13T01:30:55;98550.25;;;1.92;59.77
45078;BME280;60508;42.622;25.416;2023-02-13T01:33:22;98552.47;;;1.87;59.20
45078;BME280;60508;42.622;25.416;2023-02-13T01:35:49;98549.59;;;1.71;60.26
45078;BME280;60508;42.622;25.416;2023-02-13T01:38:15;98553.81;;;1.63;60.28
45078;BME280;60508;42.622;25.416;2023-02-13T01:40:49;98559.94;;;1.64;60.21
45078;BME280;60508;42.622;25.416;2023-02-13T01:43:16;98562.06;;;1.51;60.23
45078;BME280;60508;42.622;25.416;2023-02-13T01:45:45;98558.16;;;1.35;61.54
45078;BME280;60508;42.622;25.416;2023-02-13T01:48:17;98563.31;;;1.46;61.15
45078;BME280;60508;42.622;25.416;2023-02-13T01:50:52;98563.72;;;1.52;61.04
45078;BME280;60508;42.622;25.416;2023-02-13T01:53:42;98563.69;;;1.61;60.75
45078;BME280;60508;42.622;25.416;2023-02-13T01:56:17;98558.94;;;1.75;59.95
45078;BME280;60508;42.622;25.416;2023-02-13T01:58:48;98556.72;;;1.60;60.39
45078;BME280;60508;42.622;25.416;2023-02-13T02:01:15;98557.59;;;1.51;60.67
45078;BME280;60508;42.622;25.416;2023-02-13T02:06:12;98569.16;;;1.50;61.16
45078;BME280;60508;42.622;25.416;2023-02-13T02:08:39;98565.25;;;1.54;60.46
45078;BME280;60508;42.622;25.416;2023-02-13T02:11:13;98574.16;;;1.53;60.50
45078;BME280;60508;42.622;25.416;2023-02-13T02:13:42;98572.63;;;1.60;61.08
45078;BME280;60508;42.622;25.416;2023-02-13T02:16:09;98579.28;;;1.74;60.19
45078;BME280;60508;42.622;25.416;2023-02-13T02:18:35;98576.69;;;1.45;60.91
45078;BME280;60508;42.622;25.416;2023-02-13T02:37:48;98573.50;;;1.12;61.98
45078;BME280;60508;42.622;25.416;2023-02-13T02:40:38;98576.28;;;1.20;62.52
45078;BME280;60508;42.622;25.416;2023-02-13T02:45:51;98580.75;;;1.10;62.62
45078;BME280;60508;42.622;25.416;2023-02-13T02:48:31;98579.22;;;1.07;62.35
45078;BME280;60508;42.622;25.416;2023-02-13T02:52:04;98581.03;;;1.07;62.65
45078;BME280;60508;42.622;25.416;2023-02-13T02:55:04;98573.63;;;1.11;63.04
45078;BME280;60508;42.622;25.416;2023-02-13T02:57:45;98572.41;;;1.24;61.86
45078;BME280;60508;42.622;25.416;2023-02-13T03:00:33;98572.69;;;1.21;62.21
45078;BME280;60508;42.622;25.416;2023-02-13T03:03:22;98567.06;;;1.15;61.95
45078;BME280;60508;42.622;25.416;2023-02-13T03:08:53;98583.97;;;1.14;62.68
45078;BME280;60508;42.622;25.416;2023-02-13T03:11:41;98583.53;;;1.28;62.13
45078;BME280;60508;42.622;25.416;2023-02-13T03:14:27;98587.28;;;1.06;62.46
45078;BME280;60508;42.622;25.416;2023-02-13T03:16:55;98573.78;;;1.09;62.62
45078;BME280;60508;42.622;25.416;2023-02-13T03:20:11;98569.16;;;1.21;61.88
45078;BME280;60508;42.622;25.416;2023-02-13T03:23:11;98574.88;;;0.97;62.53
45078;BME280;60508;42.622;25.416;2023-02-13T03:31:51;98592.59;;;1.25;62.25
45078;BME280;60508;42.622;25.416;2023-02-13T03:34:30;98589.66;;;1.19;62.68
45078;BME280;60508;42.622;25.416;2023-02-13T03:37:17;98588.69;;;1.20;62.40
45078;BME280;60508;42.622;25.416;2023-02-13T03:40:09;98587.28;;;1.16;63.21
45078;BME280;60508;42.622;25.416;2023-02-13T03:43:00;98589.53;;;1.30;62.18
45078;BME280;60508;42.622;25.416;2023-02-13T03:45:32;98600.13;;;1.40;61.54
45078;BME280;60508;42.622;25.416;2023-02-13T03:48:23;98599.28;;;1.30;62.23
45078;BME280;60508;42.622;25.416;2023-02-13T03:51:11;98601.22;;;1.27;61.70
45078;BME280;60508;42.622;25.416;2023-02-13T03:53:41;98595.09;;;1.27;61.64
45078;BME280;60508;42.622;25.416;2023-02-13T03:56:10;98585.91;;;1.31;61.27
45078;BME280;60508;42.622;25.416;2023-02-13T03:58:58;98600.81;;;1.22;62.07
45078;BME280;60508;42.622;25.416;2023-02-13T04:01:44;98588.44;;;1.23;61.30
45078;BME280;60508;42.622;25.416;2023-02-13T04:04:17;98593.28;;;1.27;61.77
45078;BME280;60508;42.622;25.416;2023-02-13T04:07:05;98591.50;;;1.28;61.52
45078;BME280;60508;42.622;25.416;2023-02-13T04:09:36;98595.78;;;1.09;62.51
45078;BME280;60508;42.622;25.416;2023-02-13T04:15:02;98599.28;;;1.10;62.96
45078;BME280;60508;42.622;25.416;2023-02-13T04:17:33;98596.19;;;1.15;62.48
45078;BME280;60508;42.622;25.416;2023-02-13T04:20:00;98601.50;;;1.15;62.45
45078;BME280;60508;42.622;25.416;2023-02-13T04:22:27;98607.38;;;1.18;61.88
45078;BME280;60508;42.622;25.416;2023-02-13T04:24:53;98604.31;;;1.13;61.93
45078;BME280;60508;42.622;25.416;2023-02-13T04:27:21;98615.16;;;1.00;62.32
45078;BME280;60508;42.622;25.416;2023-02-13T04:29:49;98619.06;;;1.06;62.32
45078;BME280;60508;42.622;25.416;2023-02-13T04:32:15;98607.94;;;1.22;61.92
45078;BME280;60508;42.622;25.416;2023-02-13T04:34:42;98602.63;;;1.12;62.91
45078;BME280;60508;42.622;25.416;2023-02-13T04:37:08;98608.06;;;1.30;61.31
45078;BME280;60508;42.622;25.416;2023-02-13T04:39:34;98611.81;;;1.08;61.92
45078;BME280;60508;42.622;25.416;2023-02-13T04:42:01;98618.75;;;0.80;62.88
45078;BME280;60508;42.622;25.416;2023-02-13T04:44:27;98621.13;;;0.83;62.76
45078;BME280;60508;42.622;25.416;2023-02-13T04:46:53;98624.28;;;0.67;63.62
45078;BME280;60508;42.622;25.416;2023-02-13T04:49:19;98621.22;;;0.71;64.01
45078;BME280;60508;42.622;25.416;2023-02-13T04:51:45;98615.09;;;0.81;63.60
45078;BME280;60508;42.622;25.416;2023-02-13T04:54:11;98614.97;;;0.82;63.62
45078;BME280;60508;42.622;25.416;2023-02-13T04:56:37;98621.66;;;0.77;63.81
45078;BME280;60508;42.622;25.416;2023-02-13T04:59:05;98625.00;;;0.79;63.24
45078;BME280;60508;42.622;25.416;2023-02-13T05:01:31;98623.34;;;0.78;63.38
45078;BME280;60508;42.622;25.416;2023-02-13T05:03:57;98625.84;;;0.79;63.23
45078;BME280;60508;42.622;25.416;2023-02-13T05:06:22;98638.19;;;0.69;63.35
45078;BME280;60508;42.622;25.416;2023-02-13T05:08:49;98631.94;;;0.70;64.06
45078;BME280;60508;42.622;25.416;2023-02-13T05:11:14;98634.31;;;0.73;63.41
45078;BME280;60508;42.622;25.416;2023-02-13T05:13:41;98638.59;;;0.64;63.67
45078;BME280;60508;42.622;25.416;2023-02-13T05:16:07;98633.00;;;0.58;63.60
45078;BME280;60508;42.622;25.416;2023-02-13T05:18:33;98646.53;;;0.64;63.85
45078;BME280;60508;42.622;25.416;2023-02-13T05:20:59;98644.88;;;0.63;64.05
45078;BME280;60508;42.622;25.416;2023-02-13T05:23:44;98645.16;;;0.60;63.74
45078;BME280;60508;42.622;25.416;2023-02-13T05:26:10;98632.63;;;0.62;64.03
45078;BME280;60508;42.622;25.416;2023-02-13T05:28:36;98645.75;;;0.73;63.65
45078;BME280;60508;42.622;25.416;2023-02-13T05:31:21;98642.88;;;0.96;62.89
45078;BME280;60508;42.622;25.416;2023-02-13T05:33:47;98643.00;;;0.95;63.20
45078;BME280;60508;42.622;25.416;2023-02-13T05:36:12;98646.59;;;0.84;63.77
45078;BME280;60508;42.622;25.416;2023-02-13T05:38:39;98646.06;;;0.90;63.47
45078;BME280;60508;42.622;25.416;2023-02-13T05:41:06;98647.19;;;0.87;63.91
45078;BME280;60508;42.622;25.416;2023-02-13T05:43:31;98653.34;;;1.07;63.13
45078;BME280;60508;42.622;25.416;2023-02-13T05:46:05;98649.03;;;1.16;62.66
45078;BME280;60508;42.622;25.416;2023-02-13T05:48:31;98655.03;;;1.18;62.20
45078;BME280;60508;42.622;25.416;2023-02-13T05:50:57;98652.66;;;1.25;62.43
45078;BME280;60508;42.622;25.416;2023-02-13T05:53:23;98634.56;;;1.40;61.69
45078;BME280;60508;42.622;25.416;2023-02-13T05:55:49;98634.41;;;1.22;62.51
45078;BME280;60508;42.622;25.416;2023-02-13T05:58:19;98651.13;;;1.42;61.79
45078;BME280;60508;42.622;25.416;2023-02-13T06:00:46;98652.25;;;1.59;61.10
45078;BME280;60508;42.622;25.416;2023-02-13T06:03:12;98650.00;;;1.93;60.69
45078;BME280;60508;42.622;25.416;2023-02-13T06:05:38;98645.78;;;2.10;59.85
45078;BME280;60508;42.622;25.416;2023-02-13T06:08:04;98652.44;;;2.14;59.30
45078;BME280;60508;42.622;25.416;2023-02-13T06:10:30;98651.75;;;2.22;59.17
45078;BME280;60508;42.622;25.416;2023-02-13T06:12:56;98653.00;;;2.28;59.18
45078;BME280;60508;42.622;25.416;2023-02-13T06:15:22;98657.69;;;2.34;58.66
45078;BME280;60508;42.622;25.416;2023-02-13T06:17:48;98653.22;;;2.44;58.52
45078;BME280;60508;42.622;25.416;2023-02-13T06:20:15;98655.69;;;2.55;58.09
45078;BME280;60508;42.622;25.416;2023-02-13T06:22:41;98649.94;;;2.60;57.72
45078;BME280;60508;42.622;25.416;2023-02-13T06:25:07;98654.69;;;2.56;58.01
45078;BME280;60508;42.622;25.416;2023-02-13T06:27:33;98656.50;;;2.56;58.48
45078;BME280;60508;42.622;25.416;2023-02-13T06:29:58;98662.75;;;2.65;58.39
45078;BME280;60508;42.622;25.416;2023-02-13T06:32:24;98657.88;;;2.70;58.35
45078;BME280;60508;42.622;25.416;2023-02-13T06:34:50;98663.94;;;2.80;57.84
45078;BME280;60508;42.622;25.416;2023-02-13T06:37:16;98673.84;;;2.88;57.42
45078;BME280;60508;42.622;25.416;2023-02-13T06:39:42;98667.47;;;2.99;57.02
45078;BME280;60508;42.622;25.416;2023-02-13T06:42:08;98657.66;;;3.09;56.56
45078;BME280;60508;42.622;25.416;2023-02-13T06:44:34;98679.38;;;3.22;56.45
45078;BME280;60508;42.622;25.416;2023-02-13T06:47:00;98672.41;;;3.39;55.65
45078;BME280;60508;42.622;25.416;2023-02-13T06:49:26;98663.81;;;3.45;55.58
45078;BME280;60508;42.622;25.416;2023-02-13T06:51:51;98661.78;;;3.57;55.20
45078;BME280;60508;42.622;25.416;2023-02-13T06:54:18;98670.97;;;3.63;54.51
45078;BME280;60508;42.622;25.416;2023-02-13T06:56:43;98666.56;;;3.54;54.64
45078;BME280;60508;42.622;25.416;2023-02-13T06:59:09;98659.88;;;3.50;54.81
45078;BME280;60508;42.622;25.416;2023-02-13T07:01:36;98662.16;;;3.44;54.99
45078;BME280;60508;42.622;25.416;2023-02-13T07:04:02;98653.72;;;3.31;55.30
45078;BME280;60508;42.622;25.416;2023-02-13T07:06:28;98654.25;;;3.35;55.20
45078;BME280;60508;42.622;25.416;2023-02-13T07:08:54;98657.97;;;3.42;54.97
45078;BME280;60508;42.622;25.416;2023-02-13T07:11:23;98652.28;;;3.55;54.68
45078;BME280;60508;42.622;25.416;2023-02-13T07:13:49;98654.53;;;3.68;53.83
45078;BME280;60508;42.622;25.416;2023-02-13T07:16:15;98654.53;;;3.68;53.75
45078;BME280;60508;42.622;25.416;2023-02-13T07:18:41;98654.47;;;3.77;53.88
45078;BME280;60508;42.622;25.416;2023-02-13T07:21:07;98648.31;;;3.77;53.83
45078;BME280;60508;42.622;25.416;2023-02-13T07:23:34;98650.22;;;3.84;53.95
45078;BME280;60508;42.622;25.416;2023-02-13T07:26:00;98634.78;;;3.88;53.16
45078;BME280;60508;42.622;25.416;2023-02-13T07:28:27;98645.06;;;3.83;53.39
45078;BME280;60508;42.622;25.416;2023-02-13T07:30:54;98644.84;;;4.02;52.82
45078;BME280;60508;42.622;25.416;2023-02-13T07:33:20;98643.28;;;4.18;52.21
45078;BME280;60508;42.622;25.416;2023-02-13T07:35:48;98644.69;;;4.30;51.86
45078;BME280;60508;42.622;25.416;2023-02-13T07:38:14;98637.38;;;4.32;52.21
45078;BME280;60508;42.622;25.416;2023-02-13T07:40:41;98646.28;;;4.41;52.37
45078;BME280;60508;42.622;25.416;2023-02-13T07:43:08;98646.97;;;4.51;52.47
45078;BME280;60508;42.622;25.416;2023-02-13T07:45:34;98647.53;;;4.63;52.50
45078;BME280;60508;42.622;25.416;2023-02-13T07:48:00;98639.50;;;4.89;51.64
45078;BME280;60508;42.622;25.416;2023-02-13T07:50:27;98641.03;;;5.08;50.83
45078;BME280;60508;42.622;25.416;2023-02-13T07:52:58;98635.34;;;5.03;50.87
45078;BME280;60508;42.622;25.416;2023-02-13T07:55:25;98641.25;;;5.23;50.37
45078;BME280;60508;42.622;25.416;2023-02-13T07:57:51;98638.75;;;5.30;49.50
45078;BME280;60508;42.622;25.416;2023-02-13T08:00:18;98631.28;;;5.50;49.44
45078;BME280;60508;42.622;25.416;2023-02-13T08:02:45;98633.78;;;5.68;48.57
45078;BME280;60508;42.622;25.416;2023-02-13T08:05:11;98637.00;;;5.96;47.68
45078;BME280;60508;42.622;25.416;2023-02-13T08:07:37;98637.59;;;6.31;47.24
45078;BME280;60508;42.622;25.416;2023-02-13T08:10:06;98624.06;;;6.33;46.04
45078;BME280;60508;42.622;25.416;2023-02-13T08:12:52;98613.94;;;6.28;45.40
45078;BME280;60508;42.622;25.416;2023-02-13T08:15:19;98610.47;;;6.03;46.39
45078;BME280;60508;42.622;25.416;2023-02-13T08:17:45;98603.03;;;6.46;45.38
45078;BME280;60508;42.622;25.416;2023-02-13T08:20:11;98615.50;;;6.54;45.60
45078;BME280;60508;42.622;25.416;2023-02-13T08:22:38;98612.09;;;6.68;45.17
45078;BME280;60508;42.622;25.416;2023-02-13T08:25:05;98624.41;;;6.86;44.83
45078;BME280;60508;42.622;25.416;2023-02-13T08:27:32;98614.53;;;6.94;44.01
45078;BME280;60508;42.622;25.416;2023-02-13T08:29:58;98622.75;;;6.76;44.27
45078;BME280;60508;42.622;25.416;2023-02-13T08:32:24;98621.25;;;6.82;44.21
45078;BME280;60508;42.622;25.416;2023-02-13T08:34:51;98620.28;;;7.06;43.88
45078;BME280;60508;42.622;25.416;2023-02-13T08:37:17;98621.19;;;7.22;43.20
45078;BME280;60508;42.622;25.416;2023-02-13T08:39:44;98618.53;;;7.22;43.26
45078;BME280;60508;42.622;25.416;2023-02-13T08:42:10;98626.13;;;7.33;43.11
45078;BME280;60508;42.622;25.416;2023-02-13T08:44:36;98612.66;;;7.73;42.54
45078;BME280;60508;42.622;25.416;2023-02-13T08:47:06;98615.16;;;8.27;41.53
45078;BME280;60508;42.622;25.416;2023-02-13T08:49:33;98609.47;;;8.45;41.30
45078;BME280;60508;42.622;25.416;2023-02-13T08:51:59;98606.28;;;9.59;39.02
45078;BME280;60508;42.622;25.416;2023-02-13T08:54:26;98611.59;;;10.31;37.25
45078;BME280;60508;42.622;25.416;2023-02-13T08:56:53;98609.66;;;11.56;35.82
45078;BME280;60508;42.622;25.416;2023-02-13T08:59:20;98610.72;;;12.42;33.78
45078;BME280;60508;42.622;25.416;2023-02-13T09:01:46;98615.16;;;12.88;33.07
45078;BME280;60508;42.622;25.416;2023-02-13T09:04:13;98600.81;;;13.97;31.15
45078;BME280;60508;42.622;25.416;2023-02-13T09:06:41;98600.22;;;14.82;30.21
45078;BME280;60508;42.622;25.416;2023-02-13T09:09:07;98614.63;;;15.31;28.97
45078;BME280;60508;42.622;25.416;2023-02-13T09:11:33;98606.13;;;16.24;27.85
45078;BME280;60508;42.622;25.416;2023-02-13T09:13:59;98603.19;;;16.25;27.74
45078;BME280;60508;42.622;25.416;2023-02-13T09:16:25;98606.00;;;16.90;26.91
45078;BME280;60508;42.622;25.416;2023-02-13T09:18:51;98584.47;;;18.20;25.30
45078;BME280;60508;42.622;25.416;2023-02-13T09:21:19;98602.66;;;19.42;23.66
45078;BME280;60508;42.622;25.416;2023-02-13T09:23:46;98605.25;;;20.51;22.07
45078;BME280;60508;42.622;25.416;2023-02-13T09:26:13;98603.38;;;19.82;22.62
45078;BME280;60508;42.622;25.416;2023-02-13T09:28:40;98586.19;;;20.61;21.62
45078;BME280;60508;42.622;25.416;2023-02-13T09:31:14;98586.34;;;21.86;20.62
45078;BME280;60508;42.622;25.416;2023-02-13T09:33:42;98581.16;;;22.11;20.21
45078;BME280;60508;42.622;25.416;2023-02-13T09:36:11;98584.56;;;22.93;19.08
45078;BME280;60508;42.622;25.416;2023-02-13T09:38:40;98581.75;;;24.03;17.94
45078;BME280;60508;42.622;25.416;2023-02-13T09:41:18;98570.41;;;24.69;17.60
45078;BME280;60508;42.622;25.416;2023-02-13T09:43:52;98574.78;;;25.75;16.47
45078;BME280;60508;42.622;25.416;2023-02-13T09:48:49;98562.75;;;24.66;17.15
45078;BME280;60508;42.622;25.416;2023-02-13T09:51:18;98561.72;;;24.62;17.40
45078;BME280;60508;42.622;25.416;2023-02-13T09:53:55;98562.81;;;23.62;18.12
45078;BME280;60508;42.622;25.416;2023-02-13T09:59:02;98550.81;;;23.93;17.64
45078;BME280;60508;42.622;25.416;2023-02-13T10:01:38;98541.19;;;23.95;17.78
45078;BME280;60508;42.622;25.416;2023-02-13T10:07:35;98534.81;;;24.29;17.18
45078;BME280;60508;42.622;25.416;2023-02-13T10:09:57;98544.25;;;22.94;18.24
45078;BME280;60508;42.622;25.416;2023-02-13T10:17:40;98516.97;;;24.99;16.72
45078;BME280;60508;42.622;25.416;2023-02-13T10:20:21;98525.00;;;23.94;17.84
45078;BME280;60508;42.622;25.416;2023-02-13T10:22:53;98507.59;;;24.81;17.46
45078;BME280;60508;42.622;25.416;2023-02-13T10:25:24;98521.34;;;27.71;14.62
45078;BME280;60508;42.622;25.416;2023-02-13T10:27:56;98507.41;;;29.45;14.06
45078;BME280;60508;42.622;25.416;2023-02-13T10:30:30;98495.84;;;30.43;13.00
45078;BME280;60508;42.622;25.416;2023-02-13T10:33:04;98499.31;;;31.96;12.35
45078;BME280;60508;42.622;25.416;2023-02-13T10:36:11;98502.25;;;32.70;11.46
45078;BME280;60508;42.622;25.416;2023-02-13T10:38:44;98504.03;;;34.12;11.06
45078;BME280;60508;42.622;25.416;2023-02-13T10:43:46;98495.28;;;34.58;9.92
45078;BME280;60508;42.622;25.416;2023-02-13T10:52:01;98487.00;;;31.84;11.45
45078;BME280;60508;42.622;25.416;2023-02-13T10:57:30;98486.53;;;34.76;9.89
45078;BME280;60508;42.622;25.416;2023-02-13T11:00:12;98491.44;;;35.92;9.85
45078;BME280;60508;42.622;25.416;2023-02-13T11:02:43;98483.19;;;35.41;9.50
45078;BME280;60508;42.622;25.416;2023-02-13T11:05:24;98473.13;;;35.36;9.42
45078;BME280;60508;42.622;25.416;2023-02-13T11:07:51;98464.81;;;35.04;9.54
45078;BME280;60508;42.622;25.416;2023-02-13T11:10:20;98459.03;;;33.25;10.20
45078;BME280;60508;42.622;25.416;2023-02-13T11:12:46;98461.41;;;33.39;10.23
45078;BME280;60508;42.622;25.416;2023-02-13T11:17:49;98463.13;;;31.71;10.87
45078;BME280;60508;42.622;25.416;2023-02-13T11:20:32;98447.19;;;33.28;10.59
45078;BME280;60508;42.622;25.416;2023-02-13T11:23:32;98441.22;;;33.71;10.38
45078;BME280;60508;42.622;25.416;2023-02-13T11:26:02;98445.41;;;35.90;9.09
45078;BME280;60508;42.622;25.416;2023-02-13T11:28:30;98439.72;;;36.29;8.55
45078;BME280;60508;42.622;25.416;2023-02-13T11:31:25;98431.50;;;35.31;9.20
45078;BME280;60508;42.622;25.416;2023-02-13T11:33:51;98430.19;;;34.89;9.73
45078;BME280;60508;42.622;25.416;2023-02-13T11:36:31;98430.56;;;32.42;10.69
45078;BME280;60508;42.622;25.416;2023-02-13T11:39:02;98418.16;;;34.85;9.92
45078;BME280;60508;42.622;25.416;2023-02-13T11:41:40;98410.84;;;35.36;9.11
45078;BME280;60508;42.622;25.416;2023-02-13T11:44:20;98416.72;;;33.07;9.97
45078;BME280;60508;42.622;25.416;2023-02-13T11:46:50;98407.41;;;33.88;9.79
45078;BME280;60508;42.622;25.416;2023-02-13T11:49:19;98404.25;;;33.74;10.13
45078;BME280;60508;42.622;25.416;2023-02-13T11:51:51;98405.88;;;32.28;11.06
45078;BME280;60508;42.622;25.416;2023-02-13T11:56:55;98399.16;;;32.42;10.46
45078;BME280;60508;42.622;25.416;2023-02-13T11:59:24;98392.59;;;31.30;11.14
45078;BME280;60508;42.622;25.416;2023-02-13T12:04:29;98385.94;;;30.59;11.46
45078;BME280;60508;42.622;25.416;2023-02-13T12:07:00;98378.44;;;30.59;11.42
45078;BME280;60508;42.622;25.416;2023-02-13T12:09:28;98374.31;;;31.08;11.29
45078;BME280;60508;42.622;25.416;2023-02-13T12:12:00;98380.41;;;32.14;10.66
45078;BME280;60508;42.622;25.416;2023-02-13T12:14:37;98365.78;;;32.66;10.36
45078;BME280;60508;42.622;25.416;2023-02-13T12:17:12;98371.13;;;31.18;11.15
45078;BME280;60508;42.622;25.416;2023-02-13T12:19:47;98354.66;;;28.99;12.67
45078;BME280;60508;42.622;25.416;2023-02-13T12:22:41;98347.75;;;28.27;12.93
45078;BME280;60508;42.622;25.416;2023-02-13T12:25:39;98352.47;;;29.57;12.33
45078;BME280;60508;42.622;25.416;2023-02-13T12:28:24;98346.81;;;29.92;11.85
45078;BME280;60508;42.622;25.416;2023-02-13T12:30:54;98349.34;;;30.87;11.33
45078;BME280;60508;42.622;25.416;2023-02-13T12:36:24;98338.22;;;29.85;11.52
45078;BME280;60508;42.622;25.416;2023-02-13T12:39:03;98335.63;;;29.80;11.80
45078;BME280;60508;42.622;25.416;2023-02-13T12:52:55;98327.03;;;33.30;9.41
45078;BME280;60508;42.622;25.416;2023-02-13T13:09:39;98329.47;;;34.43;8.87
45078;BME280;60508;42.622;25.416;2023-02-13T13:28:00;98316.19;;;32.84;9.86
45078;BME280;60508;42.622;25.416;2023-02-13T13:30:31;98314.53;;;32.67;9.41
45078;BME280;60508;42.622;25.416;2023-02-13T13:33:24;98311.13;;;32.74;9.76
45078;BME280;60508;42.622;25.416;2023-02-13T13:38:52;98311.38;;;32.97;9.40
45078;BME280;60508;42.622;25.416;2023-02-13T13:46:55;98300.41;;;30.40;10.70
45078;BME280;60508;42.622;25.416;2023-02-13T13:49:54;98290.94;;;27.94;12.17
45078;BME280;60508;42.622;25.416;2023-02-13T13:52:29;98298.41;;;27.54;12.40
45078;BME280;60508;42.622;25.416;2023-02-13T13:54:57;98292.91;;;28.11;11.99
45078;BME280;60508;42.622;25.416;2023-02-13T13:57:26;98283.50;;;28.03;12.26
45078;BME280;60508;42.622;25.416;2023-02-13T14:02:49;98285.06;;;30.13;11.23
45078;BME280;60508;42.622;25.416;2023-02-13T14:05:30;98284.75;;;30.35;10.93
45078;BME280;60508;42.622;25.416;2023-02-13T14:08:01;98266.69;;;30.08;10.56
45078;BME280;60508;42.622;25.416;2023-02-13T14:20:41;98269.22;;;27.30;13.11
45078;BME280;60508;42.622;25.416;2023-02-13T14:23:26;98276.28;;;26.68;13.48
45078;BME280;60508;42.622;25.416;2023-02-13T14:34:01;98261.78;;;23.14;16.00
45078;BME280;60508;42.622;25.416;2023-02-13T14:36:33;98258.09;;;21.56;17.57
45078;BME280;60508;42.622;25.416;2023-02-13T14:44:43;98253.34;;;16.42;22.93
45078;BME280;60508;42.622;25.416;2023-02-13T14:49:56;98253.03;;;14.93;24.78
45078;BME280;60508;42.622;25.416;2023-02-13T14:52:25;98249.53;;;14.39;25.59
45078;BME280;60508;42.622;25.416;2023-02-13T14:55:11;98251.25;;;13.91;26.28
45078;BME280;60508;42.622;25.416;2023-02-13T14:57:48;98253.44;;;13.52;26.76
45078;BME280;60508;42.622;25.416;2023-02-13T15:03:04;98250.13;;;12.88;28.46
45078;BME280;60508;42.622;25.416;2023-02-13T15:05:36;98254.28;;;12.65;28.82
45078;BME280;60508;42.622;25.416;2023-02-13T15:08:25;98239.94;;;12.39;29.21
45078;BME280;60508;42.622;25.416;2023-02-13T15:10:54;98251.59;;;12.33;29.36
45078;BME280;60508;42.622;25.416;2023-02-13T15:13:30;98240.72;;;12.21;29.58
45078;BME280;60508;42.622;25.416;2023-02-13T15:16:01;98244.28;;;12.15;29.77
45078;BME280;60508;42.622;25.416;2023-02-13T15:18:32;98248.41;;;12.18;30.13
45078;BME280;60508;42.622;25.416;2023-02-13T15:20:59;98241.97;;;12.19;30.17
45078;BME280;60508;42.622;25.416;2023-02-13T15:23:31;98240.63;;;12.60;29.42
45078;BME280;60508;42.622;25.416;2023-02-13T15:28:25;98251.84;;;13.44;28.41
45078;BME280;60508;42.622;25.416;2023-02-13T15:33:21;98247.03;;;13.28;28.63
45078;BME280;60508;42.622;25.416;2023-02-13T15:38:26;98244.06;;;12.67;29.51
45078;BME280;60508;42.622;25.416;2023-02-13T15:41:00;98241.63;;;12.09;30.21
45078;BME280;60508;42.622;25.416;2023-02-13T15:43:36;98237.44;;;11.74;30.67
45078;BME280;60508;42.622;25.416;2023-02-13T15:49:17;98249.94;;;10.70;33.19
45078;BME280;60508;42.622;25.416;2023-02-13T15:51:44;98248.50;;;10.40;33.57
45078;BME280;60508;42.622;25.416;2023-02-13T15:54:30;98252.44;;;10.58;33.06
45078;BME280;60508;42.622;25.416;2023-02-13T15:56:59;98253.06;;;10.53;32.55
45078;BME280;60508;42.622;25.416;2023-02-13T15:59:30;98253.47;;;10.37;33.15